Terminal Aerodrome Forecast
Issued by NWS Binghamton, NY

Home | Current Version | Previous Version | Text Only | Print | Product List | Glossary On
Versions: 1 2 3 4 5 6 7 8 9 10 11 12 13 14 15 16 17 18
000
FTUS41 KBGM 012300
TAFSYR
TAF
KSYR 012335Z 0200/0224 19005KT P6SM SCT040 SCT150
      TEMPO 0209/0213 5SM BR BKN025
     FM021300 26008KT P6SM BKN045
      TEMPO 0213/0217 BKN025
     FM021700 27006KT P6SM BKN045 BKN100 PROB30 0220/0224 3SM TSRA
      BR BKN025CB=

USA.gov is the U.S. government's official web portal to all federal, state and local government web resources and services.